sensor_id;sensor_type;location;lat;lon;timestamp;P1;durP1;ratioP1;P2;durP2;ratioP2
14611;SDS011;7392;52.078;11.650;2023-08-31T00:01:37;0.70;;;0.70;;
14611;SDS011;7392;52.078;11.650;2023-08-31T00:04:05;0.87;;;0.80;;
14611;SDS011;7392;52.078;11.650;2023-08-31T00:06:35;0.87;;;0.80;;
14611;SDS011;7392;52.078;11.650;2023-08-31T00:09:02;1.00;;;0.80;;
14611;SDS011;7392;52.078;11.650;2023-08-31T00:11:33;0.70;;;0.70;;
14611;SDS011;7392;52.078;11.650;2023-08-31T00:14:01;0.73;;;0.73;;
14611;SDS011;7392;52.078;11.650;2023-08-31T00:16:29;0.70;;;0.70;;
14611;SDS011;7392;52.078;11.650;2023-08-31T00:18:57;1.00;;;0.90;;
14611;SDS011;7392;52.078;11.650;2023-08-31T00:21:25;0.80;;;0.80;;
14611;SDS011;7392;52.078;11.650;2023-08-31T00:23:53;1.40;;;1.23;;
14611;SDS011;7392;52.078;11.650;2023-08-31T00:26:21;1.20;;;1.10;;
14611;SDS011;7392;52.078;11.650;2023-08-31T00:28:50;2.00;;;1.20;;
14611;SDS011;7392;52.078;11.650;2023-08-31T00:31:18;1.80;;;1.30;;
14611;SDS011;7392;52.078;11.650;2023-08-31T00:33:46;1.87;;;1.70;;
14611;SDS011;7392;52.078;11.650;2023-08-31T00:36:17;1.73;;;1.63;;
14611;SDS011;7392;52.078;11.650;2023-08-31T00:38:45;1.67;;;1.53;;
14611;SDS011;7392;52.078;11.650;2023-08-31T00:41:13;1.70;;;1.37;;
14611;SDS011;7392;52.078;11.650;2023-08-31T00:43:41;3.60;;;1.80;;
14611;SDS011;7392;52.078;11.650;2023-08-31T00:46:10;2.20;;;1.47;;
14611;SDS011;7392;52.078;11.650;2023-08-31T00:48:38;1.43;;;1.30;;
14611;SDS011;7392;52.078;11.650;2023-08-31T00:51:06;2.00;;;1.27;;
14611;SDS011;7392;52.078;11.650;2023-08-31T00:53:37;1.10;;;1.00;;
14611;SDS011;7392;52.078;11.650;2023-08-31T00:56:05;1.43;;;1.33;;
14611;SDS011;7392;52.078;11.650;2023-08-31T00:58:34;1.10;;;1.00;;
14611;SDS011;7392;52.078;11.650;2023-08-31T01:01:04;1.13;;;1.03;;
14611;SDS011;7392;52.078;11.650;2023-08-31T01:03:42;1.40;;;1.30;;
14611;SDS011;7392;52.078;11.650;2023-08-31T01:06:18;1.30;;;1.20;;
14611;SDS011;7392;52.078;11.650;2023-08-31T01:08:56;1.10;;;1.00;;
14611;SDS011;7392;52.078;11.650;2023-08-31T01:11:36;1.50;;;1.17;;
14611;SDS011;7392;52.078;11.650;2023-08-31T01:14:15;1.20;;;1.10;;
14611;SDS011;7392;52.078;11.650;2023-08-31T01:16:48;1.17;;;1.07;;
14611;SDS011;7392;52.078;11.650;2023-08-31T01:19:23;1.23;;;1.13;;
14611;SDS011;7392;52.078;11.650;2023-08-31T01:22:13;1.47;;;1.37;;
14611;SDS011;7392;52.078;11.650;2023-08-31T01:24:47;1.20;;;1.10;;
14611;SDS011;7392;52.078;11.650;2023-08-31T01:27:15;1.20;;;1.10;;
14611;SDS011;7392;52.078;11.650;2023-08-31T01:29:44;1.30;;;1.20;;
14611;SDS011;7392;52.078;11.650;2023-08-31T01:32:12;1.40;;;1.20;;
14611;SDS011;7392;52.078;11.650;2023-08-31T01:34:40;1.37;;;1.23;;
14611;SDS011;7392;52.078;11.650;2023-08-31T01:37:10;1.37;;;1.27;;
14611;SDS011;7392;52.078;11.650;2023-08-31T01:39:46;1.57;;;1.47;;
14611;SDS011;7392;52.078;11.650;2023-08-31T01:42:19;1.43;;;1.33;;
14611;SDS011;7392;52.078;11.650;2023-08-31T01:44:48;1.60;;;1.50;;
14611;SDS011;7392;52.078;11.650;2023-08-31T01:47:18;1.70;;;1.60;;
14611;SDS011;7392;52.078;11.650;2023-08-31T01:49:47;2.53;;;1.90;;
14611;SDS011;7392;52.078;11.650;2023-08-31T01:52:15;1.60;;;1.50;;
14611;SDS011;7392;52.078;11.650;2023-08-31T01:54:43;1.23;;;1.10;;
14611;SDS011;7392;52.078;11.650;2023-08-31T01:57:12;2.03;;;1.50;;
14611;SDS011;7392;52.078;11.650;2023-08-31T02:00:01;1.40;;;1.30;;
14611;SDS011;7392;52.078;11.650;2023-08-31T02:02:39;1.23;;;1.13;;
14611;SDS011;7392;52.078;11.650;2023-08-31T02:05:08;1.20;;;1.10;;
14611;SDS011;7392;52.078;11.650;2023-08-31T02:07:36;0.93;;;0.90;;
14611;SDS011;7392;52.078;11.650;2023-08-31T02:10:04;1.10;;;1.00;;
14611;SDS011;7392;52.078;11.650;2023-08-31T02:12:35;0.93;;;0.90;;
14611;SDS011;7392;52.078;11.650;2023-08-31T02:15:04;1.10;;;1.00;;
14611;SDS011;7392;52.078;11.650;2023-08-31T02:17:33;1.47;;;1.00;;
14611;SDS011;7392;52.078;11.650;2023-08-31T02:20:02;1.20;;;1.10;;
14611;SDS011;7392;52.078;11.650;2023-08-31T02:22:31;1.40;;;1.30;;
14611;SDS011;7392;52.078;11.650;2023-08-31T02:25:01;1.60;;;1.40;;
14611;SDS011;7392;52.078;11.650;2023-08-31T02:27:29;1.50;;;1.40;;
14611;SDS011;7392;52.078;11.650;2023-08-31T02:29:58;1.73;;;1.60;;
14611;SDS011;7392;52.078;11.650;2023-08-31T02:32:27;1.80;;;1.70;;
14611;SDS011;7392;52.078;11.650;2023-08-31T02:34:55;1.80;;;1.70;;
14611;SDS011;7392;52.078;11.650;2023-08-31T02:37:23;2.00;;;1.80;;
14611;SDS011;7392;52.078;11.650;2023-08-31T02:39:50;1.70;;;1.60;;
14611;SDS011;7392;52.078;11.650;2023-08-31T02:42:18;1.73;;;1.63;;
14611;SDS011;7392;52.078;11.650;2023-08-31T02:44:46;2.20;;;2.00;;
14611;SDS011;7392;52.078;11.650;2023-08-31T02:47:16;2.27;;;2.07;;
14611;SDS011;7392;52.078;11.650;2023-08-31T02:49:43;2.30;;;2.10;;
14611;SDS011;7392;52.078;11.650;2023-08-31T02:52:11;2.40;;;2.20;;
14611;SDS011;7392;52.078;11.650;2023-08-31T02:54:39;2.10;;;1.90;;
14611;SDS011;7392;52.078;11.650;2023-08-31T02:57:07;2.10;;;1.90;;
14611;SDS011;7392;52.078;11.650;2023-08-31T02:59:35;2.40;;;2.20;;
14611;SDS011;7392;52.078;11.650;2023-08-31T03:02:03;2.50;;;2.30;;
14611;SDS011;7392;52.078;11.650;2023-08-31T03:04:33;2.50;;;2.30;;
14611;SDS011;7392;52.078;11.650;2023-08-31T03:07:03;2.10;;;1.90;;
14611;SDS011;7392;52.078;11.650;2023-08-31T03:09:32;2.33;;;2.00;;
14611;SDS011;7392;52.078;11.650;2023-08-31T03:11:59;2.20;;;1.80;;
14611;SDS011;7392;52.078;11.650;2023-08-31T03:14:28;2.57;;;1.80;;
14611;SDS011;7392;52.078;11.650;2023-08-31T03:16:56;2.30;;;2.10;;
14611;SDS011;7392;52.078;11.650;2023-08-31T03:19:24;2.50;;;2.20;;
14611;SDS011;7392;52.078;11.650;2023-08-31T03:21:54;2.17;;;1.97;;
14611;SDS011;7392;52.078;11.650;2023-08-31T03:24:22;2.83;;;2.13;;
14611;SDS011;7392;52.078;11.650;2023-08-31T03:26:50;2.30;;;2.10;;
14611;SDS011;7392;52.078;11.650;2023-08-31T03:29:18;2.40;;;2.20;;
14611;SDS011;7392;52.078;11.650;2023-08-31T03:31:47;3.60;;;3.00;;
14611;SDS011;7392;52.078;11.650;2023-08-31T03:34:15;3.60;;;2.60;;
14611;SDS011;7392;52.078;11.650;2023-08-31T03:36:44;3.10;;;2.63;;
14611;SDS011;7392;52.078;11.650;2023-08-31T03:39:13;3.27;;;2.57;;
14611;SDS011;7392;52.078;11.650;2023-08-31T03:41:42;3.63;;;2.70;;
14611;SDS011;7392;52.078;11.650;2023-08-31T03:44:10;3.27;;;2.93;;
14611;SDS011;7392;52.078;11.650;2023-08-31T03:46:37;4.03;;;2.83;;
14611;SDS011;7392;52.078;11.650;2023-08-31T03:49:05;2.87;;;2.60;;
14611;SDS011;7392;52.078;11.650;2023-08-31T03:51:34;3.87;;;3.30;;
14611;SDS011;7392;52.078;11.650;2023-08-31T03:54:02;3.43;;;2.80;;
14611;SDS011;7392;52.078;11.650;2023-08-31T03:56:31;3.70;;;3.00;;
14611;SDS011;7392;52.078;11.650;2023-08-31T03:59:01;3.27;;;2.90;;
14611;SDS011;7392;52.078;11.650;2023-08-31T04:01:30;3.60;;;2.80;;
14611;SDS011;7392;52.078;11.650;2023-08-31T04:03:59;3.20;;;2.90;;
14611;SDS011;7392;52.078;11.650;2023-08-31T04:06:27;3.37;;;3.07;;
14611;SDS011;7392;52.078;11.650;2023-08-31T04:08:55;4.50;;;3.33;;
14611;SDS011;7392;52.078;11.650;2023-08-31T04:11:24;2.70;;;2.50;;
14611;SDS011;7392;52.078;11.650;2023-08-31T04:13:53;3.00;;;2.80;;
14611;SDS011;7392;52.078;11.650;2023-08-31T04:16:21;2.90;;;2.70;;
14611;SDS011;7392;52.078;11.650;2023-08-31T04:18:49;3.33;;;3.03;;
14611;SDS011;7392;52.078;11.650;2023-08-31T04:21:18;4.43;;;3.23;;
14611;SDS011;7392;52.078;11.650;2023-08-31T04:23:46;4.40;;;2.40;;
14611;SDS011;7392;52.078;11.650;2023-08-31T04:26:14;2.90;;;2.53;;
14611;SDS011;7392;52.078;11.650;2023-08-31T04:28:42;3.20;;;2.87;;
14611;SDS011;7392;52.078;11.650;2023-08-31T04:31:12;3.33;;;2.60;;
14611;SDS011;7392;52.078;11.650;2023-08-31T04:33:40;2.50;;;2.10;;
14611;SDS011;7392;52.078;11.650;2023-08-31T04:36:08;2.30;;;2.10;;
14611;SDS011;7392;52.078;11.650;2023-08-31T04:38:37;2.60;;;2.20;;
14611;SDS011;7392;52.078;11.650;2023-08-31T04:41:05;2.20;;;2.00;;
14611;SDS011;7392;52.078;11.650;2023-08-31T04:43:33;3.73;;;2.83;;
14611;SDS011;7392;52.078;11.650;2023-08-31T04:46:01;3.13;;;2.27;;
14611;SDS011;7392;52.078;11.650;2023-08-31T04:48:31;2.60;;;2.27;;
14611;SDS011;7392;52.078;11.650;2023-08-31T04:50:59;2.73;;;2.50;;
14611;SDS011;7392;52.078;11.650;2023-08-31T04:53:28;3.53;;;3.10;;
14611;SDS011;7392;52.078;11.650;2023-08-31T04:55:56;2.87;;;2.63;;
14611;SDS011;7392;52.078;11.650;2023-08-31T04:58:24;2.20;;;2.00;;
14611;SDS011;7392;52.078;11.650;2023-08-31T05:00:52;2.30;;;2.10;;
14611;SDS011;7392;52.078;11.650;2023-08-31T05:03:20;2.27;;;2.00;;
14611;SDS011;7392;52.078;11.650;2023-08-31T05:05:49;3.33;;;1.90;;
14611;SDS011;7392;52.078;11.650;2023-08-31T05:08:17;2.97;;;2.17;;
14611;SDS011;7392;52.078;11.650;2023-08-31T05:10:45;2.57;;;1.93;;
14611;SDS011;7392;52.078;11.650;2023-08-31T05:13:13;2.13;;;1.80;;
14611;SDS011;7392;52.078;11.650;2023-08-31T05:15:41;3.87;;;2.20;;
14611;SDS011;7392;52.078;11.650;2023-08-31T05:18:08;2.40;;;2.13;;
14611;SDS011;7392;52.078;11.650;2023-08-31T05:20:36;2.63;;;2.30;;
14611;SDS011;7392;52.078;11.650;2023-08-31T05:23:06;2.50;;;2.30;;
14611;SDS011;7392;52.078;11.650;2023-08-31T05:25:33;2.23;;;2.03;;
14611;SDS011;7392;52.078;11.650;2023-08-31T05:28:01;2.47;;;2.27;;
14611;SDS011;7392;52.078;11.650;2023-08-31T05:30:29;3.20;;;2.13;;
14611;SDS011;7392;52.078;11.650;2023-08-31T05:32:57;3.10;;;2.20;;
14611;SDS011;7392;52.078;11.650;2023-08-31T05:35:25;3.03;;;2.57;;
14611;SDS011;7392;52.078;11.650;2023-08-31T05:37:53;2.20;;;2.00;;
14611;SDS011;7392;52.078;11.650;2023-08-31T05:40:22;2.07;;;1.93;;
14611;SDS011;7392;52.078;11.650;2023-08-31T05:42:50;2.37;;;1.80;;
14611;SDS011;7392;52.078;11.650;2023-08-31T05:45:18;3.67;;;3.03;;
14611;SDS011;7392;52.078;11.650;2023-08-31T05:47:46;3.43;;;3.13;;
14611;SDS011;7392;52.078;11.650;2023-08-31T05:50:14;5.47;;;3.00;;
14611;SDS011;7392;52.078;11.650;2023-08-31T05:52:42;3.90;;;2.90;;
14611;SDS011;7392;52.078;11.650;2023-08-31T05:55:10;4.33;;;3.07;;
14611;SDS011;7392;52.078;11.650;2023-08-31T05:57:40;4.07;;;3.17;;
14611;SDS011;7392;52.078;11.650;2023-08-31T06:00:08;4.40;;;3.47;;
14611;SDS011;7392;52.078;11.650;2023-08-31T06:02:40;4.67;;;3.30;;
14611;SDS011;7392;52.078;11.650;2023-08-31T06:05:09;4.73;;;2.97;;
14611;SDS011;7392;52.078;11.650;2023-08-31T06:07:38;3.07;;;2.77;;
14611;SDS011;7392;52.078;11.650;2023-08-31T06:10:06;4.67;;;3.93;;
14611;SDS011;7392;52.078;11.650;2023-08-31T06:12:34;6.43;;;4.00;;
14611;SDS011;7392;52.078;11.650;2023-08-31T06:15:05;4.27;;;3.37;;
14611;SDS011;7392;52.078;11.650;2023-08-31T06:17:33;4.53;;;3.63;;
14611;SDS011;7392;52.078;11.650;2023-08-31T06:20:01;3.53;;;2.93;;
14611;SDS011;7392;52.078;11.650;2023-08-31T06:22:32;2.93;;;2.60;;
14611;SDS011;7392;52.078;11.650;2023-08-31T06:25:00;4.90;;;2.50;;
14611;SDS011;7392;52.078;11.650;2023-08-31T06:27:28;2.77;;;2.50;;
14611;SDS011;7392;52.078;11.650;2023-08-31T06:29:55;3.13;;;2.40;;
14611;SDS011;7392;52.078;11.650;2023-08-31T06:32:25;3.00;;;2.50;;
14611;SDS011;7392;52.078;11.650;2023-08-31T06:34:54;2.50;;;2.27;;
14611;SDS011;7392;52.078;11.650;2023-08-31T06:37:21;2.93;;;2.17;;
14611;SDS011;7392;52.078;11.650;2023-08-31T06:39:49;2.60;;;2.13;;
14611;SDS011;7392;52.078;11.650;2023-08-31T06:42:17;4.07;;;2.20;;
14611;SDS011;7392;52.078;11.650;2023-08-31T06:44:45;2.30;;;2.00;;
14611;SDS011;7392;52.078;11.650;2023-08-31T06:47:13;3.00;;;2.70;;
14611;SDS011;7392;52.078;11.650;2023-08-31T06:49:45;4.97;;;3.30;;
14611;SDS011;7392;52.078;11.650;2023-08-31T06:52:12;4.83;;;2.77;;
14611;SDS011;7392;52.078;11.650;2023-08-31T06:54:56;5.13;;;3.90;;
14611;SDS011;7392;52.078;11.650;2023-08-31T06:57:25;4.23;;;3.00;;
14611;SDS011;7392;52.078;11.650;2023-08-31T06:59:54;3.97;;;3.03;;
14611;SDS011;7392;52.078;11.650;2023-08-31T07:02:22;3.37;;;2.57;;
14611;SDS011;7392;52.078;11.650;2023-08-31T07:04:52;2.70;;;2.30;;
14611;SDS011;7392;52.078;11.650;2023-08-31T07:07:20;4.17;;;2.97;;
14611;SDS011;7392;52.078;11.650;2023-08-31T07:09:48;4.30;;;3.00;;
14611;SDS011;7392;52.078;11.650;2023-08-31T07:12:16;3.30;;;2.87;;
14611;SDS011;7392;52.078;11.650;2023-08-31T07:14:43;3.77;;;2.30;;
14611;SDS011;7392;52.078;11.650;2023-08-31T07:17:11;7.10;;;3.57;;
14611;SDS011;7392;52.078;11.650;2023-08-31T07:19:39;2.97;;;2.60;;
14611;SDS011;7392;52.078;11.650;2023-08-31T07:22:08;4.37;;;2.90;;
14611;SDS011;7392;52.078;11.650;2023-08-31T07:24:36;2.50;;;2.30;;
14611;SDS011;7392;52.078;11.650;2023-08-31T07:27:04;3.20;;;2.13;;
14611;SDS011;7392;52.078;11.650;2023-08-31T07:29:32;2.80;;;2.00;;
14611;SDS011;7392;52.078;11.650;2023-08-31T07:32:00;3.60;;;2.40;;
14611;SDS011;7392;52.078;11.650;2023-08-31T07:34:29;4.10;;;2.50;;
14611;SDS011;7392;52.078;11.650;2023-08-31T07:36:58;2.63;;;1.90;;
14611;SDS011;7392;52.078;11.650;2023-08-31T07:39:27;2.60;;;2.10;;
14611;SDS011;7392;52.078;11.650;2023-08-31T07:41:55;3.10;;;2.33;;
14611;SDS011;7392;52.078;11.650;2023-08-31T07:44:23;2.40;;;2.20;;
14611;SDS011;7392;52.078;11.650;2023-08-31T07:46:51;4.33;;;2.30;;
14611;SDS011;7392;52.078;11.650;2023-08-31T07:49:19;4.03;;;2.00;;
14611;SDS011;7392;52.078;11.650;2023-08-31T07:51:47;3.87;;;1.80;;
14611;SDS011;7392;52.078;11.650;2023-08-31T07:54:19;3.00;;;1.80;;
14611;SDS011;7392;52.078;11.650;2023-08-31T07:56:48;2.40;;;2.00;;
14611;SDS011;7392;52.078;11.650;2023-08-31T07:59:16;2.67;;;1.80;;
14611;SDS011;7392;52.078;11.650;2023-08-31T08:01:52;2.90;;;1.80;;
14611;SDS011;7392;52.078;11.650;2023-08-31T08:04:20;2.33;;;2.00;;
14611;SDS011;7392;52.078;11.650;2023-08-31T08:06:49;3.00;;;1.73;;
14611;SDS011;7392;52.078;11.650;2023-08-31T08:09:16;2.47;;;1.80;;
14611;SDS011;7392;52.078;11.650;2023-08-31T08:11:44;3.83;;;2.03;;
14611;SDS011;7392;52.078;11.650;2023-08-31T08:14:14;4.50;;;2.17;;
14611;SDS011;7392;52.078;11.650;2023-08-31T08:16:42;3.17;;;2.03;;
14611;SDS011;7392;52.078;11.650;2023-08-31T08:19:10;2.80;;;2.17;;
14611;SDS011;7392;52.078;11.650;2023-08-31T08:21:38;2.83;;;2.10;;
14611;SDS011;7392;52.078;11.650;2023-08-31T08:24:06;2.53;;;1.83;;
14611;SDS011;7392;52.078;11.650;2023-08-31T08:26:34;2.70;;;1.80;;
14611;SDS011;7392;52.078;11.650;2023-08-31T08:29:02;2.47;;;2.00;;
14611;SDS011;7392;52.078;11.650;2023-08-31T08:31:31;2.67;;;2.20;;
14611;SDS011;7392;52.078;11.650;2023-08-31T08:33:58;2.67;;;2.07;;
14611;SDS011;7392;52.078;11.650;2023-08-31T08:36:26;3.20;;;2.00;;
14611;SDS011;7392;52.078;11.650;2023-08-31T08:38:54;2.23;;;2.00;;
14611;SDS011;7392;52.078;11.650;2023-08-31T08:41:23;3.63;;;2.03;;
14611;SDS011;7392;52.078;11.650;2023-08-31T08:43:51;2.63;;;1.83;;
14611;SDS011;7392;52.078;11.650;2023-08-31T08:46:20;2.20;;;2.00;;
14611;SDS011;7392;52.078;11.650;2023-08-31T08:48:51;2.30;;;1.80;;
14611;SDS011;7392;52.078;11.650;2023-08-31T08:51:19;2.23;;;2.00;;
14611;SDS011;7392;52.078;11.650;2023-08-31T08:53:48;3.97;;;2.10;;
14611;SDS011;7392;52.078;11.650;2023-08-31T08:56:18;2.57;;;1.83;;
14611;SDS011;7392;52.078;11.650;2023-08-31T08:58:46;2.07;;;1.50;;
14611;SDS011;7392;52.078;11.650;2023-08-31T09:01:14;2.23;;;1.80;;
14611;SDS011;7392;52.078;11.650;2023-08-31T09:03:44;2.23;;;1.57;;
14611;SDS011;7392;52.078;11.650;2023-08-31T09:06:13;1.40;;;1.30;;
14611;SDS011;7392;52.078;11.650;2023-08-31T09:08:41;2.03;;;1.40;;
14611;SDS011;7392;52.078;11.650;2023-08-31T09:11:09;1.90;;;1.70;;
14611;SDS011;7392;52.078;11.650;2023-08-31T09:13:47;1.90;;;1.40;;
14611;SDS011;7392;52.078;11.650;2023-08-31T09:16:23;1.20;;;1.10;;
14611;SDS011;7392;52.078;11.650;2023-08-31T09:18:52;1.27;;;1.07;;
14611;SDS011;7392;52.078;11.650;2023-08-31T09:21:22;1.40;;;1.20;;
14611;SDS011;7392;52.078;11.650;2023-08-31T09:24:03;1.83;;;1.10;;
14611;SDS011;7392;52.078;11.650;2023-08-31T09:26:36;1.10;;;1.00;;
14611;SDS011;7392;52.078;11.650;2023-08-31T09:29:05;1.20;;;1.10;;
14611;SDS011;7392;52.078;11.650;2023-08-31T09:31:35;1.30;;;1.20;;
14611;SDS011;7392;52.078;11.650;2023-08-31T09:34:04;1.53;;;1.20;;
14611;SDS011;7392;52.078;11.650;2023-08-31T09:36:33;1.07;;;0.97;;
14611;SDS011;7392;52.078;11.650;2023-08-31T09:39:01;1.87;;;1.20;;
14611;SDS011;7392;52.078;11.650;2023-08-31T09:41:29;1.53;;;1.03;;
14611;SDS011;7392;52.078;11.650;2023-08-31T09:43:57;2.63;;;1.23;;
14611;SDS011;7392;52.078;11.650;2023-08-31T09:46:42;2.50;;;1.30;;
14611;SDS011;7392;52.078;11.650;2023-08-31T09:49:10;2.53;;;1.30;;
14611;SDS011;7392;52.078;11.650;2023-08-31T09:51:43;2.07;;;1.50;;
14611;SDS011;7392;52.078;11.650;2023-08-31T09:54:13;1.87;;;1.10;;
14611;SDS011;7392;52.078;11.650;2023-08-31T09:56:41;2.50;;;1.43;;
14611;SDS011;7392;52.078;11.650;2023-08-31T09:59:09;1.20;;;1.10;;
14611;SDS011;7392;52.078;11.650;2023-08-31T10:01:38;1.60;;;1.20;;
14611;SDS011;7392;52.078;11.650;2023-08-31T10:04:07;1.10;;;1.00;;
14611;SDS011;7392;52.078;11.650;2023-08-31T10:06:35;1.60;;;1.10;;
14611;SDS011;7392;52.078;11.650;2023-08-31T10:09:06;2.03;;;0.87;;
14611;SDS011;7392;52.078;11.650;2023-08-31T10:11:36;1.03;;;0.90;;
14611;SDS011;7392;52.078;11.650;2023-08-31T10:14:05;1.33;;;0.90;;
14611;SDS011;7392;52.078;11.650;2023-08-31T10:16:33;1.20;;;0.77;;
14611;SDS011;7392;52.078;11.650;2023-08-31T10:19:01;1.53;;;1.00;;
14611;SDS011;7392;52.078;11.650;2023-08-31T10:21:29;1.50;;;1.10;;
14611;SDS011;7392;52.078;11.650;2023-08-31T10:23:57;1.47;;;1.10;;
14611;SDS011;7392;52.078;11.650;2023-08-31T10:26:27;1.07;;;0.80;;
14611;SDS011;7392;52.078;11.650;2023-08-31T10:28:56;1.53;;;1.40;;
14611;SDS011;7392;52.078;11.650;2023-08-31T10:31:27;1.53;;;0.97;;
14611;SDS011;7392;52.078;11.650;2023-08-31T10:33:56;1.20;;;1.10;;
14611;SDS011;7392;52.078;11.650;2023-08-31T10:36:36;2.37;;;1.37;;
14611;SDS011;7392;52.078;11.650;2023-08-31T10:39:05;1.40;;;1.13;;
14611;SDS011;7392;52.078;11.650;2023-08-31T10:41:39;1.57;;;1.20;;
14611;SDS011;7392;52.078;11.650;2023-08-31T10:44:19;2.10;;;1.27;;
14611;SDS011;7392;52.078;11.650;2023-08-31T10:46:48;1.77;;;1.27;;
14611;SDS011;7392;52.078;11.650;2023-08-31T10:49:18;1.60;;;1.10;;
14611;SDS011;7392;52.078;11.650;2023-08-31T10:51:47;1.60;;;1.00;;
14611;SDS011;7392;52.078;11.650;2023-08-31T10:54:20;1.67;;;1.10;;
14611;SDS011;7392;52.078;11.650;2023-08-31T10:56:54;2.23;;;1.30;;
14611;SDS011;7392;52.078;11.650;2023-08-31T10:59:43;1.30;;;1.00;;
14611;SDS011;7392;52.078;11.650;2023-08-31T11:02:26;1.67;;;1.00;;
14611;SDS011;7392;52.078;11.650;2023-08-31T11:04:59;0.80;;;0.70;;
14611;SDS011;7392;52.078;11.650;2023-08-31T11:07:30;1.90;;;1.30;;
14611;SDS011;7392;52.078;11.650;2023-08-31T11:10:11;2.33;;;1.10;;
14611;SDS011;7392;52.078;11.650;2023-08-31T11:12:42;1.60;;;1.30;;
14611;SDS011;7392;52.078;11.650;2023-08-31T11:15:12;2.73;;;1.30;;
14611;SDS011;7392;52.078;11.650;2023-08-31T11:17:40;1.10;;;0.90;;
14611;SDS011;7392;52.078;11.650;2023-08-31T11:20:12;1.07;;;0.90;;
14611;SDS011;7392;52.078;11.650;2023-08-31T11:22:44;1.67;;;1.20;;
14611;SDS011;7392;52.078;11.650;2023-08-31T11:25:13;2.60;;;1.27;;
14611;SDS011;7392;52.078;11.650;2023-08-31T11:27:42;1.83;;;1.10;;
14611;SDS011;7392;52.078;11.650;2023-08-31T11:30:20;3.10;;;1.27;;
14611;SDS011;7392;52.078;11.650;2023-08-31T11:32:49;1.97;;;1.10;;
14611;SDS011;7392;52.078;11.650;2023-08-31T11:35:18;2.83;;;1.30;;
14611;SDS011;7392;52.078;11.650;2023-08-31T11:37:48;2.73;;;1.20;;
14611;SDS011;7392;52.078;11.650;2023-08-31T11:40:17;1.30;;;1.00;;
14611;SDS011;7392;52.078;11.650;2023-08-31T11:42:47;1.17;;;0.90;;
14611;SDS011;7392;52.078;11.650;2023-08-31T11:45:15;0.80;;;0.80;;
14611;SDS011;7392;52.078;11.650;2023-08-31T11:47:44;1.77;;;0.70;;
14611;SDS011;7392;52.078;11.650;2023-08-31T11:50:13;1.37;;;0.80;;
14611;SDS011;7392;52.078;11.650;2023-08-31T11:52:42;1.83;;;0.93;;
14611;SDS011;7392;52.078;11.650;2023-08-31T11:55:11;2.23;;;1.10;;
14611;SDS011;7392;52.078;11.650;2023-08-31T11:57:39;2.60;;;0.80;;
14611;SDS011;7392;52.078;11.650;2023-08-31T12:00:09;1.30;;;0.93;;
14611;SDS011;7392;52.078;11.650;2023-08-31T12:02:38;1.67;;;1.07;;
14611;SDS011;7392;52.078;11.650;2023-08-31T12:05:06;3.43;;;1.30;;
14611;SDS011;7392;52.078;11.650;2023-08-31T12:07:38;2.70;;;1.17;;
14611;SDS011;7392;52.078;11.650;2023-08-31T12:10:08;1.60;;;1.00;;
14611;SDS011;7392;52.078;11.650;2023-08-31T12:12:37;4.20;;;1.30;;
14611;SDS011;7392;52.078;11.650;2023-08-31T12:15:05;1.37;;;0.90;;
14611;SDS011;7392;52.078;11.650;2023-08-31T12:17:37;2.40;;;1.03;;
14611;SDS011;7392;52.078;11.650;2023-08-31T12:20:06;1.80;;;0.80;;
14611;SDS011;7392;52.078;11.650;2023-08-31T12:22:36;1.93;;;0.90;;
14611;SDS011;7392;52.078;11.650;2023-08-31T12:25:04;0.87;;;0.70;;
14611;SDS011;7392;52.078;11.650;2023-08-31T12:27:32;1.07;;;0.80;;
14611;SDS011;7392;52.078;11.650;2023-08-31T12:30:00;1.80;;;1.00;;
14611;SDS011;7392;52.078;11.650;2023-08-31T12:32:29;1.20;;;0.67;;
14611;SDS011;7392;52.078;11.650;2023-08-31T12:34:59;1.17;;;0.87;;
14611;SDS011;7392;52.078;11.650;2023-08-31T12:37:26;1.50;;;0.80;;
14611;SDS011;7392;52.078;11.650;2023-08-31T12:39:54;1.10;;;0.73;;
14611;SDS011;7392;52.078;11.650;2023-08-31T12:42:22;1.03;;;0.67;;
14611;SDS011;7392;52.078;11.650;2023-08-31T12:44:50;4.43;;;1.10;;
14611;SDS011;7392;52.078;11.650;2023-08-31T12:47:18;1.47;;;1.10;;
14611;SDS011;7392;52.078;11.650;2023-08-31T12:49:46;1.63;;;0.83;;
14611;SDS011;7392;52.078;11.650;2023-08-31T12:52:15;1.43;;;1.00;;
14611;SDS011;7392;52.078;11.650;2023-08-31T12:54:43;1.97;;;1.10;;
14611;SDS011;7392;52.078;11.650;2023-08-31T12:57:11;2.37;;;1.03;;
14611;SDS011;7392;52.078;11.650;2023-08-31T12:59:39;2.40;;;1.20;;
14611;SDS011;7392;52.078;11.650;2023-08-31T13:02:08;1.00;;;0.90;;
14611;SDS011;7392;52.078;11.650;2023-08-31T13:04:39;2.70;;;1.00;;
14611;SDS011;7392;52.078;11.650;2023-08-31T13:07:07;1.30;;;1.00;;
14611;SDS011;7392;52.078;11.650;2023-08-31T13:09:36;4.20;;;1.27;;
14611;SDS011;7392;52.078;11.650;2023-08-31T13:12:04;2.03;;;1.33;;
14611;SDS011;7392;52.078;11.650;2023-08-31T13:14:32;1.27;;;1.00;;
14611;SDS011;7392;52.078;11.650;2023-08-31T13:17:01;2.53;;;1.30;;
14611;SDS011;7392;52.078;11.650;2023-08-31T13:19:29;1.17;;;1.00;;
14611;SDS011;7392;52.078;11.650;2023-08-31T13:21:57;2.17;;;1.17;;
14611;SDS011;7392;52.078;11.650;2023-08-31T13:24:25;1.47;;;1.20;;
14611;SDS011;7392;52.078;11.650;2023-08-31T13:26:54;1.30;;;1.10;;
14611;SDS011;7392;52.078;11.650;2023-08-31T13:29:22;1.53;;;1.00;;
14611;SDS011;7392;52.078;11.650;2023-08-31T13:31:49;1.77;;;1.13;;
14611;SDS011;7392;52.078;11.650;2023-08-31T13:34:17;1.73;;;1.10;;
14611;SDS011;7392;52.078;11.650;2023-08-31T13:36:45;1.20;;;1.10;;
14611;SDS011;7392;52.078;11.650;2023-08-31T13:39:13;2.60;;;1.10;;
14611;SDS011;7392;52.078;11.650;2023-08-31T13:41:42;1.70;;;1.00;;
14611;SDS011;7392;52.078;11.650;2023-08-31T13:44:13;2.13;;;1.20;;
14611;SDS011;7392;52.078;11.650;2023-08-31T13:46:41;2.00;;;1.00;;
14611;SDS011;7392;52.078;11.650;2023-08-31T13:49:09;1.07;;;0.80;;
14611;SDS011;7392;52.078;11.650;2023-08-31T13:51:37;1.37;;;0.90;;
14611;SDS011;7392;52.078;11.650;2023-08-31T13:54:06;1.80;;;0.97;;
14611;SDS011;7392;52.078;11.650;2023-08-31T13:56:34;1.27;;;0.80;;
14611;SDS011;7392;52.078;11.650;2023-08-31T13:59:03;1.17;;;0.97;;
14611;SDS011;7392;52.078;11.650;2023-08-31T14:01:32;1.83;;;0.70;;
14611;SDS011;7392;52.078;11.650;2023-08-31T14:04:00;1.50;;;1.07;;
14611;SDS011;7392;52.078;11.650;2023-08-31T14:06:30;1.40;;;0.90;;
14611;SDS011;7392;52.078;11.650;2023-08-31T14:08:58;2.03;;;1.13;;
14611;SDS011;7392;52.078;11.650;2023-08-31T14:11:26;1.83;;;1.20;;
14611;SDS011;7392;52.078;11.650;2023-08-31T14:14:01;2.37;;;1.00;;
14611;SDS011;7392;52.078;11.650;2023-08-31T14:16:33;1.47;;;0.90;;
14611;SDS011;7392;52.078;11.650;2023-08-31T14:19:03;1.57;;;1.00;;
14611;SDS011;7392;52.078;11.650;2023-08-31T14:21:32;1.40;;;1.00;;
14611;SDS011;7392;52.078;11.650;2023-08-31T14:24:00;1.13;;;0.80;;
14611;SDS011;7392;52.078;11.650;2023-08-31T14:26:27;1.20;;;0.83;;
14611;SDS011;7392;52.078;11.650;2023-08-31T14:28:55;1.33;;;0.70;;
14611;SDS011;7392;52.078;11.650;2023-08-31T14:31:23;1.07;;;0.90;;
14611;SDS011;7392;52.078;11.650;2023-08-31T14:33:52;1.37;;;0.70;;
14611;SDS011;7392;52.078;11.650;2023-08-31T14:36:22;1.83;;;0.97;;
14611;SDS011;7392;52.078;11.650;2023-08-31T14:38:49;3.17;;;0.70;;
14611;SDS011;7392;52.078;11.650;2023-08-31T14:41:17;2.80;;;1.90;;
14611;SDS011;7392;52.078;11.650;2023-08-31T14:43:45;1.83;;;1.10;;
14611;SDS011;7392;52.078;11.650;2023-08-31T14:46:13;3.83;;;1.47;;
14611;SDS011;7392;52.078;11.650;2023-08-31T14:48:41;1.87;;;1.30;;
14611;SDS011;7392;52.078;11.650;2023-08-31T14:51:11;4.20;;;2.53;;
14611;SDS011;7392;52.078;11.650;2023-08-31T14:53:40;1.43;;;1.20;;
14611;SDS011;7392;52.078;11.650;2023-08-31T14:56:08;2.13;;;0.83;;
14611;SDS011;7392;52.078;11.650;2023-08-31T14:58:36;2.50;;;0.80;;
14611;SDS011;7392;52.078;11.650;2023-08-31T15:01:03;0.40;;;0.40;;